Time;durP1;ratioP1;P1;durP2;ratioP2;P2;SDS_P1;SDS_P2;PMS_P1;PMS_P2;Temp;Humidity;BMP_temperature;BMP_pressure;BME280_temperature;BME280_humidity;BME280_pressure;Samples;Min_cycle;Max_cycle;Signal;HPM_P1;HPM_P2
2023/09/13 00:01:04;;;;;;;3.67;3.20;;;;;;;23.61;64.68;98902.94;7273525;39;20260;31
2023/09/13 00:06:24;;;;;;;3.50;3.00;;;;;;;23.63;63.70;98903.53;7305730;39;20504;31
2023/09/13 00:17:03;;;;;;;5.70;3.60;;;;;;;23.52;64.18;98881.66;7391564;39;20873;31
2023/09/13 00:22:26;;;;;;;3.80;3.30;;;;;;;23.42;64.49;98887.00;7323760;39;20726;31
2023/09/13 00:27:44;;;;;;;3.72;3.33;;;;;;;23.21;64.09;98881.25;7330083;39;20278;31
2023/09/13 00:33:21;;;;;;;4.28;3.34;;;;;;;23.15;64.54;98898.78;7356213;39;20355;31
2023/09/13 00:38:57;;;;;;;6.55;3.85;;;;;;;23.05;65.56;98901.38;7283576;40;20771;31
2023/09/13 00:49:37;;;;;;;4.68;3.47;;;;;;;22.85;66.50;98895.63;7326021;39;20272;31
2023/09/13 01:00:16;;;;;;;5.00;3.90;;;;;;;22.86;65.96;98911.03;7308559;39;21241;31
2023/09/13 01:05:54;;;;;;;4.70;3.55;;;;;;;22.67;67.49;98921.44;7360842;39;20916;31
2023/09/13 01:11:13;;;;;;;5.95;3.85;;;;;;;22.71;66.13;98924.53;7277860;39;20253;31
2023/09/13 01:16:47;;;;;;;5.70;3.72;;;;;;;22.63;68.08;98930.44;7338216;39;20275;31
2023/09/13 01:22:25;;;;;;;5.60;3.62;;;;;;;22.51;68.56;98938.75;7306370;39;20323;31
2023/09/13 01:28:03;;;;;;;4.50;3.65;;;;;;;22.41;69.01;98944.09;7256540;40;20327;31
2023/09/13 01:38:44;;;;;;;4.07;3.65;;;;;;;22.36;69.01;98958.56;7279150;39;20620;31
2023/09/13 01:49:20;;;;;;;4.10;3.28;;;;;;;22.26;69.41;98941.91;7405072;39;20267;31
2023/09/13 01:54:55;;;;;;;4.42;3.60;;;;;;;22.35;68.45;98931.34;7327897;39;20255;31
2023/09/13 02:06:28;;;;;;;4.07;3.42;;;;;;;22.10;69.56;98944.63;7321874;39;20259;31
2023/09/13 02:12:05;;;;;;;3.85;3.50;;;;;;;22.01;70.32;98944.22;7343700;39;20236;31
2023/09/13 02:17:24;;;;;;;4.64;3.70;;;;;;;22.00;70.63;98948.87;7353433;39;20290;31
2023/09/13 02:22:44;;;;;;;3.40;3.10;;;;;;;21.97;70.54;98962.25;7358902;39;20267;31
2023/09/13 02:33:25;;;;;;;3.60;3.25;;;;;;;21.80;71.31;98955.84;7301079;39;21164;31
2023/09/13 02:44:04;;;;;;;4.10;3.35;;;;;;;21.89;70.41;98962.63;7409529;39;21165;31
2023/09/13 02:49:42;;;;;;;3.92;2.78;;;;;;;21.84;70.46;98976.25;7337427;39;20406;31
2023/09/13 03:00:18;;;;;;;4.90;3.43;;;;;;;21.86;70.22;98991.38;7321243;39;21193;31
2023/09/13 03:05:54;;;;;;;3.33;3.03;;;;;;;21.86;70.05;98990.53;7300017;39;20380;31
2023/09/13 03:11:29;;;;;;;4.22;3.12;;;;;;;21.75;70.94;98995.00;7300210;40;20352;31
2023/09/13 03:16:51;;;;;;;4.47;3.20;;;;;;;21.72;70.43;98994.66;7319429;39;20255;31
2023/09/13 03:22:37;;;;;;;;;;;;;;;;;;;;;
2023/09/13 03:28:00;;;;;;;4.80;3.45;;;;;;;21.62;71.90;98986.22;7303783;39;20849;31
2023/09/13 03:33:21;;;;;;;3.78;3.47;;;;;;;21.64;70.76;98987.63;7299133;39;20252;31
2023/09/13 03:38:55;;;;;;;3.58;3.20;;;;;;;21.63;71.90;98976.91;7297359;39;20778;31
2023/09/13 03:44:16;;;;;;;3.60;3.25;;;;;;;21.77;70.51;98970.03;7277425;40;20267;31
2023/09/13 03:49:37;;;;;;;5.32;3.80;;;;;;;21.67;71.21;98976.19;7278346;39;20356;31
2023/09/13 03:55:14;;;;;;;5.00;3.45;;;;;;;21.67;70.99;98967.97;7314795;39;20256;31
2023/09/13 04:00:47;;;;;;;4.50;3.90;;;;;;;21.62;72.35;98967.00;7288460;39;20259;31
2023/09/13 04:06:22;;;;;;;4.68;3.75;;;;;;;21.46;72.19;98963.94;7218202;40;20238;31
2023/09/13 04:11:56;;;;;;;5.30;3.80;;;;;;;21.60;71.61;98978.22;7202646;40;20257;31
2023/09/13 04:17:20;;;;;;;5.03;3.60;;;;;;;21.82;70.86;98978.38;7205297;40;20265;31
2023/09/13 04:22:40;;;;;;;4.53;3.93;;;;;;;21.80;70.53;98984.12;7296082;39;20276;31
2023/09/13 04:28:12;;;;;;;4.30;3.90;;;;;;;21.79;71.44;98974.22;7295422;39;20356;31
2023/09/13 04:34:03;;;;;;;4.18;3.78;;;;;;;21.78;71.25;98968.97;7256353;40;20265;31
2023/09/13 04:39:23;;;;;;;4.80;4.40;;;;;;;21.86;71.02;98974.06;7257657;40;20382;31
2023/09/13 04:45:05;;;;;;;5.28;4.68;;;;;;;21.82;71.52;98968.25;7263594;40;20627;31
2023/09/13 04:50:23;;;;;;;5.57;4.75;;;;;;;21.90;70.29;98969.75;7287820;40;20238;31
2023/09/13 04:56:00;;;;;;;5.87;4.90;;;;;;;21.85;70.15;98978.72;7298770;39;20321;31
2023/09/13 05:01:36;;;;;;;7.20;5.10;;;;;;;21.79;70.93;98976.12;7337443;39;20365;31
2023/09/13 05:06:57;;;;;;;6.00;5.20;;;;;;;21.69;70.67;98992.38;7319973;39;20240;31
2023/09/13 05:12:32;;;;;;;6.15;4.47;;;;;;;21.71;71.41;98984.75;7328397;39;20344;31
2023/09/13 05:18:10;;;;;;;5.70;4.45;;;;;;;21.76;71.22;99012.31;7274460;40;20245;31
2023/09/13 05:23:32;;;;;;;5.87;4.72;;;;;;;21.80;70.87;99028.03;7130261;39;20247;31
2023/09/13 05:29:07;;;;;;;4.83;4.33;;;;;;;21.79;70.68;99028.28;7333952;39;20344;31
2023/09/13 05:34:44;;;;;;;5.22;4.72;;;;;;;21.85;70.72;99036.34;7259064;40;20298;31
2023/09/13 05:40:17;;;;;;;7.10;4.95;;;;;;;21.81;71.08;99037.06;7229987;40;20328;31
2023/09/13 05:45:53;;;;;;;8.52;6.12;;;;;;;21.75;71.00;99043.56;7223137;40;20385;31
2023/09/13 05:51:30;;;;;;;7.32;6.45;;;;;;;21.74;71.66;99039.97;7270176;39;20248;31
2023/09/13 05:57:05;;;;;;;6.60;6.00;;;;;;;21.82;71.35;99036.84;7317334;39;20257;31
2023/09/13 06:02:38;;;;;;;7.12;6.43;;;;;;;21.94;71.45;99043.16;7271587;40;20388;31
2023/09/13 06:13:19;;;;;;;8.30;6.22;;;;;;;;;;7328697;39;21631;31
2023/09/13 06:18:39;;;;;;;6.60;5.80;;;;;;;22.00;71.25;99050.44;7296650;39;20272;31
2023/09/13 06:29:20;;;;;;;6.30;5.65;;;;;;;22.12;70.64;99069.59;7341894;39;20528;31
2023/09/13 06:34:37;;;;;;;6.85;5.75;;;;;;;22.24;70.05;99075.06;7319211;39;20609;31
2023/09/13 06:40:13;;;;;;;6.60;5.60;;;;;;;22.25;70.75;99088.53;7337978;39;20274;31
2023/09/13 06:45:50;;;;;;;6.22;5.62;;;;;;;22.15;71.13;99093.00;7297793;39;20241;31
2023/09/13 06:51:11;;;;;;;6.58;5.98;;;;;;;22.12;71.87;99097.06;7324866;39;20272;31
2023/09/13 06:56:31;;;;;;;6.55;5.80;;;;;;;22.09;71.19;99110.44;7291287;39;20322;31
2023/09/13 07:02:05;;;;;;;6.24;5.64;;;;;;;22.01;71.91;99107.00;7311333;39;20263;31
2023/09/13 07:07:25;;;;;;;6.20;5.60;;;;;;;22.14;71.47;99122.38;7314174;39;20880;31
2023/09/13 07:12:45;;;;;;;8.80;6.20;;;;;;;22.19;70.78;99125.22;7337768;39;20255;31
2023/09/13 07:18:23;;;;;;;7.00;5.60;;;;;;;22.06;71.73;99124.66;7331212;39;20247;31
2023/09/13 07:23:42;;;;;;;6.90;6.18;;;;;;;22.16;71.75;99125.69;7275288;39;20248;31
2023/09/13 07:29:18;;;;;;;6.95;6.35;;;;;;;22.09;72.29;99122.25;7310540;39;20259;31
2023/09/13 07:34:53;;;;;;;10.25;6.60;;;;;;;22.08;72.60;99117.84;7256297;40;20241;31
2023/09/13 07:40:16;;;;;;;6.82;6.00;;;;;;;22.21;71.78;99127.72;7243744;40;20790;31
2023/09/13 07:45:51;;;;;;;8.98;6.47;;;;;;;22.21;71.82;99120.31;7277500;40;20341;31
2023/09/13 07:51:28;;;;;;;8.52;6.53;;;;;;;22.38;71.39;99132.19;7269827;40;20249;31
2023/09/13 07:57:03;;;;;;;8.05;6.40;;;;;;;22.36;71.54;99133.53;7242335;40;20338;31
2023/09/13 08:02:22;;;;;;;6.72;6.03;;;;;;;22.53;71.15;99134.41;7268474;40;21293;31
2023/09/13 08:07:58;;;;;;;9.63;5.90;;;;;;;22.60;71.34;99140.56;7288741;39;20348;31
2023/09/13 08:13:33;;;;;;;7.87;5.73;;;;;;;22.71;70.86;99147.97;7292436;40;20264;31
2023/09/13 08:18:53;;;;;;;6.53;5.93;;;;;;;22.62;71.06;99165.06;7312245;39;20241;31
2023/09/13 08:24:30;;;;;;;7.74;6.26;;;;;;;22.51;70.46;99166.78;7296054;39;20412;31
2023/09/13 08:34:55;;;;;;;11.07;6.18;;;;;;;22.81;70.30;99172.09;7310239;39;21112;31
2023/09/13 08:45:47;;;;;;;6.57;5.97;;;;;;;23.02;69.47;99182.38;7377801;39;20266;31
2023/09/13 08:56:29;;;;;;;6.10;5.50;;;;;;;23.15;68.60;99176.56;7401253;39;21095;31
2023/09/13 09:02:06;;;;;;;8.10;5.53;;;;;;;23.20;68.54;99181.31;7355760;39;20757;31
2023/09/13 09:07:41;;;;;;;6.28;4.84;;;;;;;23.24;68.12;99190.72;7354177;39;20406;31
2023/09/13 09:18:20;;;;;;;6.10;5.50;;;;;;;23.45;68.28;99178.16;7352290;39;20287;31
2023/09/13 09:23:56;;;;;;;5.87;4.87;;;;;;;23.48;67.12;99186.75;7318311;39;20659;31
2023/09/13 09:29:33;;;;;;;5.00;4.45;;;;;;;23.55;66.72;99194.84;7285795;39;20245;31
2023/09/13 09:35:07;;;;;;;5.55;4.37;;;;;;;23.63;66.46;99197.19;7256729;40;20700;31
2023/09/13 09:40:41;;;;;;;5.30;4.25;;;;;;;23.70;66.45;99197.84;7307757;39;20263;31
2023/09/13 09:46:16;;;;;;;6.25;4.25;;;;;;;23.83;65.57;99200.22;7257457;40;20819;31
2023/09/13 09:51:52;;;;;;;5.20;4.10;;;;;;;24.21;65.02;99196.69;7240040;40;20518;31
2023/09/13 09:57:27;;;;;;;5.73;3.97;;;;;;;24.34;64.46;99199.09;7218594;40;20370;31
2023/09/13 10:03:03;;;;;;;3.60;3.20;;;;;;;24.26;62.41;99212.47;7250100;39;20418;31
2023/09/13 10:13:45;;;;;;;5.28;3.97;;;;;;;24.50;61.74;99211.13;7283821;39;20284;31
2023/09/13 10:19:19;;;;;;;5.95;3.95;;;;;;;24.36;62.93;99224.44;7246830;40;20294;31
2023/09/13 10:24:54;;;;;;;5.10;3.45;;;;;;;24.19;62.00;99231.91;7303164;39;20417;31
2023/09/13 10:30:28;;;;;;;4.00;3.35;;;;;;;24.14;63.51;99229.91;7268185;40;20764;31
2023/09/13 10:36:03;;;;;;;4.34;3.32;;;;;;;24.28;61.81;99224.06;7205776;40;20340;31
2023/09/13 10:41:39;;;;;;;4.22;3.54;;;;;;;24.26;63.19;99220.72;7274857;39;20257;31
2023/09/13 10:47:14;;;;;;;3.50;3.10;;;;;;;24.62;61.64;99225.59;7236405;40;20448;31
2023/09/13 10:52:50;;;;;;;6.32;4.00;;;;;;;24.91;61.57;99226.25;7215374;40;20425;31
2023/09/13 10:58:24;;;;;;;5.77;3.80;;;;;;;25.10;59.64;99231.16;7177357;40;20334;31
2023/09/13 11:04:01;;;;;;;5.17;3.37;;;;;;;25.14;58.56;99223.22;7224377;40;20241;31
2023/09/13 11:09:37;;;;;;;3.80;3.00;;;;;;;25.30;59.15;99227.78;7231153;40;20237;31
2023/09/13 11:15:07;;;;;;;;;;;;;;;;;;;;;
2023/09/13 11:20:38;;;;;;;3.75;3.22;;;;;;;25.85;57.77;99227.44;7187792;40;20570;31
2023/09/13 11:26:14;;;;;;;4.82;3.42;;;;;;;25.75;57.47;99234.81;7216466;40;20319;31
2023/09/13 11:31:49;;;;;;;3.65;3.25;;;;;;;25.59;57.70;99233.84;7334613;39;20338;31
2023/09/13 11:42:29;;;;;;;5.35;3.33;;;;;;;25.42;57.13;99245.00;7348552;39;21161;31
2023/09/13 11:53:20;;;;;;;4.10;3.20;;;;;;;25.44;57.94;99256.63;7363522;39;21150;31
2023/09/13 11:58:54;;;;;;;4.20;3.65;;;;;;;25.47;57.24;99249.72;7278217;40;20267;31
2023/09/13 12:04:14;;;;;;;4.87;3.90;;;;;;;25.42;58.11;99244.16;7257542;40;20442;31
2023/09/13 12:09:50;;;;;;;5.68;3.50;;;;;;;25.62;56.73;99240.78;7301948;39;20651;31
2023/09/13 12:15:27;;;;;;;4.97;3.50;;;;;;;25.52;56.91;99238.75;7082829;39;20251;31
2023/09/13 12:20:48;;;;;;;4.20;3.40;;;;;;;25.48;56.97;99243.12;7326360;39;20364;31
2023/09/13 12:26:24;;;;;;;3.60;3.30;;;;;;;26.08;55.49;99242.78;7338452;39;20703;31
2023/09/13 12:32:00;;;;;;;6.70;3.42;;;;;;;26.28;54.86;99239.37;7359433;39;20783;31
2023/09/13 12:37:35;;;;;;;3.50;3.20;;;;;;;26.37;54.02;99240.53;7318299;39;20631;31
2023/09/13 12:43:11;;;;;;;3.90;3.10;;;;;;;26.46;52.84;99245.25;7293122;40;20449;31
2023/09/13 12:48:48;;;;;;;3.64;3.22;;;;;;;26.62;53.12;99245.34;7286210;39;20268;31
2023/09/13 12:54:23;;;;;;;3.70;3.10;;;;;;;26.57;52.53;99246.16;7297520;39;20259;31
2023/09/13 13:00:02;;;;;;;4.68;3.22;;;;;;;26.37;53.32;99243.28;7270643;40;20276;31
2023/09/13 13:05:38;;;;;;;4.03;3.17;;;;;;;26.36;53.43;99249.91;7232984;40;20250;31
2023/09/13 13:11:15;;;;;;;5.30;3.50;;;;;;;26.40;53.32;99238.06;7264138;39;20263;31
2023/09/13 13:16:49;;;;;;;3.65;3.00;;;;;;;26.55;52.95;99237.28;7255893;40;20276;31
2023/09/13 13:22:26;;;;;;;3.78;2.95;;;;;;;27.02;52.21;99223.37;7312936;39;20248;31
2023/09/13 13:28:01;;;;;;;3.37;2.73;;;;;;;27.29;49.87;99239.78;7317619;39;20352;31
2023/09/13 13:33:22;;;;;;;3.12;2.50;;;;;;;26.76;50.41;99235.44;7257492;39;20246;31
2023/09/13 13:38:59;;;;;;;3.87;2.70;;;;;;;27.16;49.77;99227.28;7295866;39;20333;31
2023/09/13 13:44:20;;;;;;;2.97;2.30;;;;;;;27.27;48.51;99230.91;7301677;39;20267;31
2023/09/13 13:49:43;;;;;;;2.76;2.44;;;;;;;27.25;48.47;99217.31;7248752;40;20365;31
2023/09/13 14:00:27;;;;;;;3.00;2.70;;;;;;;27.03;49.30;99221.47;7334920;39;21626;31
2023/09/13 14:11:06;;;;;;;3.00;2.50;;;;;;;26.87;50.31;99215.03;7405249;39;20278;31
2023/09/13 14:21:46;;;;;;;3.05;2.67;;;;;;;26.76;51.89;99222.44;7384505;39;21497;31
2023/09/13 14:27:31;;;;;;;;;;;;;;;;;;;;;
2023/09/13 14:38:00;;;;;;;4.53;2.70;;;;;;;26.41;52.55;99231.44;7339168;39;21146;31
2023/09/13 14:43:21;;;;;;;4.32;2.83;;;;;;;26.37;52.97;99233.03;7348537;39;20264;31
2023/09/13 14:54:17;;;;;;;4.78;3.03;;;;;;;26.15;52.85;99229.59;7277872;39;20430;31
2023/09/13 14:59:37;;;;;;;3.87;2.72;;;;;;;26.30;52.92;99232.47;7294201;39;20260;31
2023/09/13 15:04:56;;;;;;;4.90;2.70;;;;;;;26.44;52.71;99232.81;7261016;40;20274;31
2023/09/13 15:10:32;;;;;;;5.45;2.70;;;;;;;26.40;51.47;99232.53;7301331;39;20277;31
2023/09/13 15:20:57;;;;;;;3.92;2.22;;;;;;;26.29;52.18;99236.31;7302279;39;21275;31
2023/09/13 15:26:32;;;;;;;3.78;2.35;;;;;;;26.27;51.34;99237.69;7367545;39;20542;31
2023/09/13 15:31:53;;;;;;;2.95;2.00;;;;;;;26.32;52.53;99237.72;7380261;39;20629;31
2023/09/13 15:37:29;;;;;;;3.55;2.50;;;;;;;26.21;51.52;99238.75;7318383;39;20275;31
2023/09/13 15:43:05;;;;;;;3.33;2.30;;;;;;;26.14;52.47;99241.75;7309679;39;20226;31
2023/09/13 15:48:26;;;;;;;3.62;2.20;;;;;;;26.08;51.45;99239.19;7289356;39;20249;31
2023/09/13 15:54:01;;;;;;;3.35;2.40;;;;;;;25.86;52.95;99247.59;7326628;39;20256;31
2023/09/13 15:59:37;;;;;;;3.00;2.33;;;;;;;25.78;52.48;99235.12;7296617;39;20305;31
2023/09/13 16:10:26;;;;;;;2.50;2.22;;;;;;;25.74;51.93;99247.78;7204928;39;20276;31
2023/09/13 16:21:10;;;;;;;3.35;2.10;;;;;;;25.47;50.92;99241.44;7245570;39;20358;31
2023/09/13 16:26:45;;;;;;;2.72;2.00;;;;;;;25.45;51.66;99236.19;7341758;39;20247;31
2023/09/13 16:32:23;;;;;;;2.58;1.90;;;;;;;25.41;51.88;99240.56;7336928;39;20259;31
2023/09/13 16:37:59;;;;;;;2.58;2.10;;;;;;;25.34;51.71;99239.13;7316546;39;20252;31
2023/09/13 16:43:20;;;;;;;2.25;2.05;;;;;;;25.29;51.85;99256.47;7277907;39;20269;31
2023/09/13 16:48:41;;;;;;;2.95;2.10;;;;;;;25.13;51.42;99262.91;7277146;39;20294;31
2023/09/13 16:54:15;;;;;;;2.72;1.87;;;;;;;25.10;52.46;99268.94;7302197;39;20249;31
2023/09/13 16:59:50;;;;;;;2.80;2.12;;;;;;;25.10;52.14;99269.78;7312052;39;20267;31
2023/09/13 17:05:25;;;;;;;3.47;1.93;;;;;;;25.06;52.81;99276.06;7324807;39;20259;31
2023/09/13 17:11:03;;;;;;;2.40;2.10;;;;;;;24.99;52.37;99276.28;7241581;40;20568;31
2023/09/13 17:16:42;;;;;;;3.10;1.90;;;;;;;24.91;52.43;99287.78;7235171;40;20259;31
2023/09/13 17:22:06;;;;;;;3.42;2.30;;;;;;;24.85;53.53;99293.44;7294355;39;20353;31
2023/09/13 17:27:43;;;;;;;4.40;2.50;;;;;;;24.72;54.29;99297.41;7320512;39;20338;31
2023/09/13 17:33:18;;;;;;;2.78;2.17;;;;;;;24.63;54.32;99296.19;7301016;39;20267;31
2023/09/13 17:38:39;;;;;;;2.37;2.10;;;;;;;24.48;54.18;99301.50;7299203;39;20241;31
2023/09/13 17:44:14;;;;;;;2.30;2.00;;;;;;;24.30;55.32;99301.78;7297875;40;20284;31
2023/09/13 17:49:34;;;;;;;2.55;2.20;;;;;;;24.12;55.95;99317.47;7309969;39;20252;31
2023/09/13 17:55:10;;;;;;;3.15;2.15;;;;;;;23.81;57.19;99323.56;7299216;39;20649;31
2023/09/13 18:00:56;;;;;;;;;;;;;;;;;;;;;
2023/09/13 18:06:19;;;;;;;2.70;2.40;;;;;;;23.49;57.56;99338.94;7310088;39;20659;31
2023/09/13 18:11:57;;;;;;;3.60;2.30;;;;;;;23.39;57.91;99347.78;7289022;39;20912;31
2023/09/13 18:17:32;;;;;;;2.85;2.47;;;;;;;23.16;58.81;99346.00;7273037;40;20813;31
2023/09/13 18:22:51;;;;;;;4.28;2.15;;;;;;;23.07;58.28;99354.88;7239520;40;20826;31
2023/09/13 18:33:32;;;;;;;3.25;2.30;;;;;;;22.83;58.63;99363.16;7312200;39;21042;31
2023/09/13 18:44:10;;;;;;;4.70;2.20;;;;;;;22.62;59.56;99368.41;7363364;39;21123;31
2023/09/13 18:49:41;;;;;;;2.90;2.30;;;;;;;22.51;59.23;99372.81;7279384;40;21160;31
2023/09/13 18:55:16;;;;;;;3.40;2.35;;;;;;;22.52;58.94;99387.41;7271754;40;20230;31
2023/09/13 19:06:26;;;;;;;4.50;2.60;;;;;;;22.48;59.18;99406.28;7245744;39;20605;31
2023/09/13 19:12:03;;;;;;;2.42;1.98;;;;;;;22.42;59.68;99415.50;7230335;40;20264;31
2023/09/13 19:17:39;;;;;;;2.63;2.33;;;;;;;22.36;60.06;99417.28;7221891;40;20327;31
2023/09/13 19:23:20;;;;;;;2.78;2.28;;;;;;;22.24;59.98;99424.69;7342251;39;20352;31
2023/09/13 19:28:57;;;;;;;3.20;2.30;;;;;;;22.18;60.29;99422.88;7274929;40;20252;31
2023/09/13 19:39:38;;;;;;;3.65;2.20;;;;;;;22.02;60.32;99442.78;7307048;39;21556;31
2023/09/13 19:45:15;;;;;;;4.28;2.30;;;;;;;21.93;60.60;99433.19;7327975;39;20249;31
2023/09/13 19:50:36;;;;;;;2.37;2.17;;;;;;;21.90;60.58;99445.44;7266729;40;20261;31
2023/09/13 19:56:15;;;;;;;3.70;2.55;;;;;;;21.83;61.14;99446.59;7298524;40;20245;31
2023/09/13 20:01:36;;;;;;;2.40;2.20;;;;;;;21.78;61.34;99452.78;7278253;40;20364;31
2023/09/13 20:07:13;;;;;;;5.10;2.60;;;;;;;21.68;61.56;99463.47;7333042;39;20267;31
2023/09/13 20:12:48;;;;;;;5.05;2.70;;;;;;;21.68;61.42;99481.84;7323950;39;20262;31
2023/09/13 20:18:10;;;;;;;3.45;2.55;;;;;;;21.66;61.45;99497.72;7327676;39;20334;31
2023/09/13 20:23:45;;;;;;;5.28;2.40;;;;;;;21.57;61.53;99498.03;7328005;39;21138;31
2023/09/13 20:29:24;;;;;;;2.95;2.65;;;;;;;21.48;62.64;99504.91;7311047;39;20341;31
2023/09/13 20:34:59;;;;;;;3.37;2.83;;;;;;;21.48;63.21;99509.53;7332106;39;20289;31
2023/09/13 20:40:34;;;;;;;4.12;2.97;;;;;;;21.43;63.62;99515.72;7268233;40;20276;31
2023/09/13 20:46:11;;;;;;;5.47;2.90;;;;;;;21.51;63.58;99520.06;7319430;39;20297;31
2023/09/13 20:51:47;;;;;;;3.75;3.35;;;;;;;21.71;63.10;99530.78;7283489;39;20245;31
2023/09/13 20:57:22;;;;;;;3.87;3.33;;;;;;;21.66;63.59;99534.22;7259706;40;20241;31
2023/09/13 21:02:59;;;;;;;3.88;3.40;;;;;;;21.63;63.62;99537.44;7257481;40;20241;31
2023/09/13 21:08:20;;;;;;;3.65;3.30;;;;;;;21.51;64.50;99540.09;7296215;39;20251;31
2023/09/13 21:13:55;;;;;;;5.75;3.30;;;;;;;21.30;64.97;99547.94;7319952;39;20261;31
2023/09/13 21:19:35;;;;;;;5.00;3.95;;;;;;;21.22;65.40;99557.31;7239505;40;20327;31
2023/09/13 21:30:01;;;;;;;4.75;4.28;;;;;;;21.15;65.84;99562.00;7309557;39;20348;31
2023/09/13 21:35:19;;;;;;;5.30;4.75;;;;;;;21.02;66.12;99559.34;7329071;39;20313;31
2023/09/13 21:40:55;;;;;;;5.65;5.15;;;;;;;20.83;67.47;99561.22;7353276;39;20290;31
2023/09/13 21:51:34;;;;;;;6.00;5.40;;;;;;;20.92;65.40;99570.84;7376477;39;21162;31
2023/09/13 21:57:10;;;;;;;6.20;5.60;;;;;;;20.90;66.26;99572.13;7338191;39;20251;31
2023/09/13 22:02:45;;;;;;;6.60;5.90;;;;;;;20.95;66.04;99575.03;7322058;39;20252;31
2023/09/13 22:08:21;;;;;;;6.20;5.53;;;;;;;20.74;65.88;99572.69;7363055;39;20243;31
2023/09/13 22:13:57;;;;;;;6.33;5.73;;;;;;;20.68;66.11;99574.41;7280310;39;20315;31
2023/09/13 22:19:32;;;;;;;6.50;5.90;;;;;;;20.70;65.69;99572.31;7247323;40;20312;31
2023/09/13 22:25:05;;;;;;;6.68;5.97;;;;;;;20.59;66.58;99576.59;7189245;40;20356;31
2023/09/13 22:30:41;;;;;;;7.40;6.57;;;;;;;20.55;65.00;99578.09;7224718;40;20355;31
2023/09/13 22:36:16;;;;;;;7.40;6.56;;;;;;;20.54;64.61;99576.41;7233912;39;20582;31
2023/09/13 22:41:51;;;;;;;6.95;6.28;;;;;;;20.51;64.64;99576.84;7287745;40;20247;31
2023/09/13 22:47:28;;;;;;;6.70;6.00;;;;;;;20.48;64.94;99580.03;7288128;40;20241;31
2023/09/13 22:53:04;;;;;;;6.82;6.22;;;;;;;20.44;64.96;99583.44;7274812;40;20319;31
2023/09/13 22:58:40;;;;;;;7.78;5.65;;;;;;;20.59;65.53;99582.06;7237443;40;20360;31
2023/09/13 23:04:18;;;;;;;6.20;5.70;;;;;;;20.56;65.06;99584.41;7320247;39;20257;31
2023/09/13 23:09:41;;;;;;;5.95;5.35;;;;;;;20.50;65.16;99597.06;7281097;39;20257;31
2023/09/13 23:15:00;;;;;;;5.88;5.38;;;;;;;20.33;65.52;99598.66;7257191;40;20347;31
2023/09/13 23:20:35;;;;;;;5.15;4.65;;;;;;;20.18;65.48;99581.69;7274861;39;20248;31
2023/09/13 23:26:12;;;;;;;6.03;4.68;;;;;;;20.09;66.01;99585.72;7327753;39;20259;31
2023/09/13 23:31:47;;;;;;;4.95;4.55;;;;;;;20.05;66.26;99587.22;7348049;39;20312;31
2023/09/13 23:37:25;;;;;;;5.10;4.57;;;;;;;19.88;67.33;99592.31;7341042;39;20244;31
2023/09/13 23:43:02;;;;;;;4.90;4.50;;;;;;;20.08;65.87;99590.34;7271616;39;21137;31
